createdAt,value
2022-10-05T03:41:10.926Z,5.25
2022-10-05T03:44:52.103Z,5.20
2022-10-05T03:48:15.799Z,5.30
2022-10-05T03:51:27.319Z,5.31
2022-10-05T03:54:45.822Z,5.29
2022-10-05T03:57:51.855Z,5.36
2022-10-05T04:01:00.731Z,5.39
2022-10-05T04:04:06.863Z,5.37
2022-10-05T04:07:32.051Z,5.41
2022-10-05T04:10:46.858Z,5.49
2022-10-05T04:13:56.273Z,5.60
2022-10-05T04:17:04.923Z,5.54
2022-10-05T04:20:19.162Z,5.52
2022-10-05T04:23:39.756Z,5.52
2022-10-05T04:26:51.128Z,5.54
2022-10-05T04:30:02.838Z,5.61
2022-10-05T04:33:10.835Z,5.50
2022-10-05T04:36:24.293Z,5.48
2022-10-05T04:39:49.996Z,5.52
2022-10-05T04:43:02.412Z,5.50
2022-10-05T04:46:30.087Z,5.51
2022-10-05T04:49:58.308Z,5.48
2022-10-05T04:53:17.372Z,5.46
2022-10-05T04:56:38.777Z,5.54
2022-10-05T05:00:02.979Z,5.57
2022-10-05T05:03:18.165Z,5.51
2022-10-05T05:06:46.446Z,5.50
2022-10-05T05:10:04.708Z,5.58
2022-10-05T05:13:21.268Z,5.61
2022-10-05T05:16:41.550Z,5.63
2022-10-05T05:20:20.300Z,5.67
2022-10-05T05:23:39.214Z,5.76
2022-10-05T05:26:57.074Z,5.89
2022-10-05T05:30:40.082Z,5.98
2022-10-05T05:33:48.770Z,6.06
2022-10-05T05:37:10.780Z,6.15
2022-10-05T05:40:25.149Z,6.33
2022-10-05T05:43:50.693Z,6.47
2022-10-05T05:47:09.897Z,6.71
2022-10-05T05:50:32.401Z,6.91
2022-10-05T05:53:44.403Z,7.06
2022-10-05T05:56:58.569Z,7.23
2022-10-05T06:00:19.528Z,7.46
2022-10-05T06:03:33.840Z,7.65
2022-10-05T06:06:41.252Z,7.72
2022-10-05T06:09:53.629Z,7.85
2022-10-05T06:13:03.828Z,8.10
2022-10-05T06:16:22.079Z,8.28
2022-10-05T06:19:28.019Z,8.39
2022-10-05T06:22:38.284Z,8.40
2022-10-05T06:26:10.464Z,8.41
2022-10-05T06:29:24.813Z,8.45
2022-10-05T06:32:46.516Z,8.61
2022-10-05T06:36:04.799Z,8.85
2022-10-05T06:39:26.503Z,8.99
2022-10-05T06:42:39.959Z,9.03
2022-10-05T06:46:00.197Z,9.10
2022-10-05T06:49:19.663Z,9.33
2022-10-05T06:52:34.456Z,9.51
2022-10-05T06:55:57.198Z,9.69
2022-10-05T06:59:40.800Z,9.89
2022-10-05T07:03:22.236Z,10.02
2022-10-05T07:06:34.245Z,10.12
2022-10-05T07:09:40.624Z,10.40
2022-10-05T07:13:01.661Z,10.62
2022-10-05T07:16:16.709Z,10.86
2022-10-05T07:19:29.555Z,10.94
2022-10-05T07:23:03.209Z,10.57
2022-10-05T07:26:08.986Z,10.96
2022-10-05T07:29:52.974Z,11.23
2022-10-05T07:33:21.925Z,11.39
2022-10-05T07:36:52.224Z,11.67
2022-10-05T07:40:18.296Z,11.99
2022-10-05T07:44:00.885Z,12.13
2022-10-05T07:47:23.505Z,12.43
2022-10-05T07:50:33.728Z,12.66
2022-10-05T07:53:49.464Z,12.75
2022-10-05T07:57:31.538Z,12.78
2022-10-05T08:00:50.074Z,13.03
2022-10-05T08:04:04.548Z,13.24
2022-10-05T08:07:12.400Z,13.38
2022-10-05T08:10:42.900Z,13.35
2022-10-05T08:13:56.233Z,13.26
2022-10-05T08:17:06.171Z,13.59
2022-10-05T08:20:26.880Z,13.85
2022-10-05T08:23:41.984Z,14.09
2022-10-05T08:27:05.139Z,14.31
2022-10-05T08:30:13.133Z,14.30
2022-10-05T08:33:20.742Z,14.48
2022-10-05T08:37:02.579Z,14.77
2022-10-05T08:40:36.070Z,15.06
2022-10-05T08:44:03.922Z,15.54
2022-10-05T08:47:16.274Z,15.89
2022-10-05T08:50:25.347Z,16.09
2022-10-05T08:53:52.241Z,16.18
2022-10-05T08:57:16.852Z,16.24
2022-10-05T09:00:22.495Z,15.88
2022-10-05T09:03:42.030Z,15.38
2022-10-05T09:07:03.340Z,15.34
2022-10-05T09:10:26.949Z,15.61
2022-10-05T09:14:12.644Z,16.03
2022-10-05T09:17:39.528Z,16.38
2022-10-05T09:21:02.631Z,16.48
2022-10-05T09:24:14.626Z,16.65
2022-10-05T09:27:19.517Z,16.82
2022-10-05T09:30:56.578Z,17.04
2022-10-05T09:34:36.606Z,17.34
2022-10-05T09:38:18.213Z,17.79
2022-10-05T09:41:41.936Z,18.45
2022-10-05T09:44:47.702Z,18.71
2022-10-05T09:48:36.378Z,19.05
2022-10-05T09:52:06.222Z,19.13
2022-10-05T09:55:28.703Z,19.18
2022-10-05T09:59:03.789Z,18.78
2022-10-05T10:02:40.364Z,18.12
2022-10-05T10:06:05.469Z,17.69
2022-10-05T10:09:38.527Z,17.58
2022-10-05T10:13:15.361Z,17.76
2022-10-05T10:16:29.999Z,17.91
2022-10-05T10:19:38.642Z,18.08
2022-10-05T10:22:56.399Z,18.28
2022-10-05T10:26:30.595Z,18.46
2022-10-05T10:29:58.639Z,18.46
2022-10-05T10:33:15.727Z,18.59
2022-10-05T10:36:59.443Z,18.37
2022-10-05T10:40:40.145Z,18.05
2022-10-05T10:44:04.489Z,18.13
2022-10-05T10:47:13.249Z,18.05
2022-10-05T10:50:34.647Z,17.98
2022-10-05T10:54:18.299Z,18.21
2022-10-05T10:57:26.752Z,18.83
2022-10-05T11:01:10.629Z,19.12
2022-10-05T11:04:19.256Z,18.88
2022-10-05T11:08:03.424Z,18.94
2022-10-05T11:11:42.842Z,18.99
2022-10-05T11:15:01.461Z,18.68
2022-10-05T11:18:13.154Z,18.84
2022-10-05T11:21:45.425Z,19.21
2022-10-05T11:25:31.154Z,19.47
2022-10-05T11:28:46.496Z,19.85
2022-10-05T11:32:27.629Z,20.00
2022-10-05T11:35:42.460Z,20.01
2022-10-05T11:39:02.176Z,20.12
2022-10-05T11:42:17.302Z,20.00
2022-10-05T11:45:26.319Z,20.06
2022-10-05T11:48:50.957Z,20.11
2022-10-05T11:51:57.969Z,20.10
2022-10-05T11:55:19.989Z,20.56
2022-10-05T11:58:29.529Z,20.82
2022-10-05T12:01:50.118Z,21.04
2022-10-05T12:05:11.249Z,21.37
2022-10-05T12:08:19.668Z,21.42
2022-10-05T12:11:37.486Z,21.49
2022-10-05T12:15:03.063Z,21.58
2022-10-05T12:18:20.015Z,21.49
2022-10-05T12:21:31.456Z,21.77
2022-10-05T12:24:37.015Z,21.68
2022-10-05T12:27:44.452Z,21.50
2022-10-05T12:31:02.682Z,21.86
2022-10-05T12:34:08.178Z,21.64
2022-10-05T12:37:48.768Z,22.11
2022-10-05T12:41:09.715Z,22.12
2022-10-05T12:44:17.914Z,22.65
2022-10-05T12:47:49.284Z,22.42
2022-10-05T12:51:03.903Z,22.44
2022-10-05T12:54:06.483Z,22.63
2022-10-05T12:57:09.185Z,23.45
2022-10-05T13:00:21.753Z,24.11
2022-10-05T13:03:42.696Z,24.76
2022-10-05T13:07:05.267Z,25.65
2022-10-05T13:10:42.084Z,26.64
2022-10-05T13:13:53.114Z,25.15
2022-10-05T13:17:01.398Z,24.68
2022-10-05T13:20:38.530Z,25.92
2022-10-05T13:24:15.020Z,28.12
2022-10-05T13:27:27.739Z,29.99
2022-10-05T13:30:30.722Z,30.91
2022-10-05T13:33:42.212Z,31.82
2022-10-05T13:36:49.232Z,32.35
2022-10-05T13:40:27.598Z,31.76
2022-10-05T13:43:59.774Z,31.40
2022-10-05T13:47:13.042Z,29.27
2022-10-05T13:50:33.613Z,28.04
2022-10-05T13:53:48.131Z,26.74
2022-10-05T13:57:22.163Z,26.42
2022-10-05T14:00:27.577Z,25.76
2022-10-05T14:03:32.371Z,25.38
2022-10-05T14:06:37.351Z,24.93
2022-10-05T14:09:48.034Z,24.65
2022-10-05T14:12:54.487Z,24.40
2022-10-05T14:16:06.136Z,24.05
2022-10-05T14:19:21.773Z,24.13
2022-10-05T14:22:25.958Z,24.04
2022-10-05T14:25:30.765Z,24.18
2022-10-05T14:28:38.455Z,24.13
2022-10-05T14:32:10.317Z,23.92
2022-10-05T14:35:22.077Z,23.91
2022-10-05T14:38:31.828Z,23.59
2022-10-05T14:41:37.283Z,23.08
2022-10-05T14:44:40.511Z,22.33
2022-10-05T14:47:52.638Z,21.90
2022-10-05T14:50:59.346Z,21.35
2022-10-05T14:54:23.653Z,21.00
2022-10-05T14:57:45.007Z,20.50
2022-10-05T15:01:01.386Z,19.85
2022-10-05T15:04:20.600Z,19.74
2022-10-05T15:07:29.176Z,19.45
2022-10-05T15:10:42.225Z,19.21
2022-10-05T15:13:48.930Z,18.86
2022-10-05T15:17:00.201Z,18.63
2022-10-05T15:20:29.188Z,18.38
2022-10-05T15:23:42.803Z,18.13
2022-10-05T15:26:56.468Z,18.05
2022-10-05T15:30:04.558Z,17.80
2022-10-05T15:33:22.868Z,17.66
